ADDS METAR Data INFO
IDs: Format: Raw Decoded Include TAF

Data at: 2022 UTC 20 Jul 2018

KABY 201953Z 32007KT 10SM SCT040 BKN050 33/23 A2992 RMK AO2 SLP130 T03280228
KABY 201853Z VRB04KT 10SM SCT035 BKN049 31/23 A2995 RMK AO2 SLP139 T03110228
KABY 201753Z 31005KT 10SM BKN032 BKN042 31/22 A2996 RMK AO2 SLP142 T03110222 10322 20239 58013
KABY 201653Z 00000KT 10SM BKN026 BKN031 31/23 A2997 RMK AO2 SLP146 T03060228
KABY 201553Z 35005KT 10SM BKN018 OVC027 28/23 A3000 RMK AO2 SLP156 T02830228
KABY 201541Z 34006KT 10SM BKN018 OVC027 28/23 A3000 RMK AO2 T02830228
KABY 201453Z 07005KT 10SM BKN018 28/23 A3000 RMK AO2 SLP155 T02830228 50010
KABY 201410Z 33006KT 10SM OVC013 27/23 A3000 RMK AO2 T02670228
KABY 201353Z 36003KT 10SM OVC009 27/23 A3000 RMK AO2 CIG 007V013 SLP156 T02670228
KABY 201253Z 00000KT 10SM OVC005 24/23 A2998 RMK AO2 SLP149 T02440228
KABY 201153Z COR 00000KT 4SM BR OVC002 24/23 A2997 RMK AO2 SLP145 T02390228 10244 20239 53013
KABY 201053Z AUTO 08004KT 10SM OVC003 24/22 A2995 RMK AO2 SLP139 T02390222
KABY 201043Z AUTO 09004KT 10SM OVC004 24/22 A2995 RMK AO2 T02390222
KABY 200953Z AUTO 05003KT 10SM OVC005 24/22 A2994 RMK AO2 SLP135 T02390222
KABY 200853Z AUTO 03004KT 10SM BKN006 24/22 A2993 RMK AO2 SLP132 T02390222 58003
KABY 200753Z AUTO 01003KT 10SM BKN007 24/22 A2993 RMK AO2 SLP132 T02390222
KABY 200718Z AUTO 00000KT 10SM BKN007 OVC014 24/23 A2993 RMK AO2 CIG 005V010 T02440228
KABY 200653Z AUTO 36003KT 10SM SCT006 BKN014 24/23 A2994 RMK AO2 SLP136 T02440228
KABY 200608Z AUTO 19003KT 10SM FEW009 24/23 A2994 RMK AO2 T02440228
KABY 200553Z AUTO 16003KT 10SM CLR 24/23 A2994 RMK AO2 SLP135 60000 T02390228 10267 20239 58010
KABY 200520Z AUTO 00000KT 10SM FEW009 24/23 A2995 RMK AO2 T02440228
KABY 200453Z AUTO 00000KT 10SM CLR 24/23 A2996 RMK AO2 SLP143 T02440228 403220244
KABY 200353Z AUTO 35003KT 10SM SCT046 BKN070 OVC085 24/23 A2998 RMK AO2 SLP149 T02440228
KABY 200253Z AUTO 00000KT 10SM BKN060 BKN080 26/23 A2997 RMK AO2 SLP145 60000 T02560233 51009
KABY 200153Z AUTO 01003KT 10SM FEW005 SCT029 OVC049 26/24 A2996 RMK AO2 SLP143 T02560239
KABY 200150Z AUTO 01004KT 10SM FEW005 SCT023 OVC049 26/24 A2996 RMK AO2
KABY 200053Z AUTO 03003KT 10SM SCT047 BKN060 BKN070 26/24 A2994 RMK AO2 LTG DSNT N RAE40 SLP137 P0000 T02560239
KABY 192353Z 15004KT 10SM -RA FEW080 27/23 A2994 RMK AO2 RAB49 SLP134 P0000 60000 T02670228 10322 20267 51009
KABY 192253Z 00000KT 10SM SCT065 27/23 A2993 RMK AO2 LTG DSNT S AND SW SLP132 T02720228
KABY 192238Z 00000KT 10SM SCT065 27/23 A2992 RMK AO2 LTG DSNT NE AND S T02720228
KABY 192212Z 14010KT 10SM FEW025 BKN065 28/23 A2992 RMK AO2 LTG DSNT SE AND S T02780228
KABY 192210Z 14010KT 10SM FEW065 28/23 A2992 RMK AO2 LTG DSNT SE T02780228
KABY 192153Z COR 08007KT 10SM VCTS SCT025 BKN065 28/23 A2992 RMK AO2 LTG DSNT SE SLP130 T02830228
KABY 192129Z 10007KT 10SM SCT025 28/23 A2991 RMK AO2 LTG DSNT NE-S T02830233
KABY 192100Z 06007KT 10SM VCTS CLR 28/23 A2991 RMK AO2 LTG DSNT NE-SE T02780233
KABY 192053Z 04004KT 10SM VCTS BKN024 28/23 A2991 RMK AO2 LTG DSNT NE-SE SLP125 T02830233 56008
KABY 192008Z 33009KT 10SM VCTS BKN024 31/24 A2991 RMK AO2 LTG DSNT NE-SE T03060239
KABY 191953Z 26006KT 10SM SCT030 32/24 A2991 RMK AO2 SLP126 T03170239
KABY 191853Z 22005KT 10SM SCT030 32/24 A2991 RMK AO2 LTG DSNT E AND NW SLP127 T03170244
KABY 191753Z 13003KT 10SM BKN026 BKN050 31/24 A2993 RMK AO2 LTG DSNT W SLP134 T03110239 10322 20250 58012
KABY 191653Z VRB03KT 10SM BKN019 32/24 A2996 RMK AO2 SLP142 T03170244
KABY 191611Z 15004KT 10SM BKN016 BKN048 30/25 A2997 RMK AO2 T03000250
KABY 191610Z 16004KT 10SM SCT016 BKN048 31/25 A2997 RMK AO2 T03060250
KABY 191553Z VRB03KT 10SM BKN013 BKN048 30/24 A2998 RMK AO2 SLP148 T03000244
KABY 191453Z 10003KT 10SM OVC012 28/24 A2997 RMK AO2 SLP145 T02780239 51002
KABY 191444Z 14003KT 10SM OVC010 28/24 A2997 RMK AO2 T02780244
KABY 191353Z 13003KT 3SM BR OVC005 27/24 A2997 RMK AO2 SLP145 T02670244
KABY 191253Z 00000KT 3SM BR OVC002 25/24 A2996 RMK AO2 SLP144 T02500239
KABY 191153Z 00000KT 3SM BR OVC003 25/24 A2996 RMK AO2 SLP143 T02500239 10250 20244 53015
KABY 191053Z AUTO 00000KT 6SM BR BKN003 24/23 A2995 RMK AO2 SLP139 T02440233
KABY 191023Z AUTO 00000KT 7SM SCT003 24/23 A2993 RMK AO2 T02440233
KABY 190953Z AUTO 00000KT 8SM BKN003 24/23 A2993 RMK AO2 SLP131 T02440233
KABY 190941Z AUTO 00000KT 8SM SCT004 24/23 A2992 RMK AO2 T02440233
KABY 190853Z AUTO 24003KT 8SM CLR 24/23 A2992 RMK AO2 SLP127 T02440233 55004